Terminal Aerodrome Forecast
Issued by NWS

Home | Current Version | Previous Version | Graphics & Text | Print | Product List | Glossary On
Versions: 1 2 3 4 5 6 7 8 9 10 11 12 13 14 15 16 17 18 19 20 21 22
000
FTUS43 KICT 271128
TAFHUT
TAF
KHUT 271128Z 2712/2812 08008KT P6SM OVC040
      TEMPO 2716/2720 3SM -SN OVC020
     FM272100 13010KT P6SM OVC020=

USA.gov is the U.S. government's official web portal to all federal, state and local government web resources and services.